Time;durP1;ratioP1;P1;durP2;ratioP2;P2;SDS_P1;SDS_P2;PMS_P1;PMS_P2;Temp;Humidity;BMP_temperature;BMP_pressure;BME280_temperature;BME280_humidity;BME280_pressure;Samples;Min_cycle;Max_cycle;Signal;HPM_P1;HPM_P2
2021/12/12 00:00:20;;;;;;;44.27;20.13;;;2.00;99.90;;;;;;5094019;28;20267;-53
2021/12/12 00:03:00;;;;;;;56.37;25.20;;;1.90;99.90;;;;;;5094593;28;20545;-49
2021/12/12 00:05:44;;;;;;;51.13;25.43;;;2.00;99.90;;;;;;5093916;28;20171;-50
2021/12/12 00:08:12;;;;;;;60.47;26.57;;;1.90;99.90;;;;;;5094338;28;20170;-48
2021/12/12 00:10:40;;;;;;;59.40;26.83;;;1.90;99.90;;;;;;5094613;28;20173;-49
2021/12/12 00:13:18;;;;;;;54.60;25.77;;;1.80;99.90;;;;;;5094124;28;20213;-52
2021/12/12 00:15:44;;;;;;;50.80;24.73;;;1.80;99.90;;;;;;5059857;28;20528;-48
2021/12/12 00:18:11;;;;;;;48.20;21.80;;;1.80;99.90;;;;;;5094078;28;20200;-50
2021/12/12 00:20:37;;;;;;;51.30;20.63;;;1.70;99.90;;;;;;5076186;28;20526;-47
2021/12/12 00:23:05;;;;;;;30.70;15.47;;;1.70;99.90;;;;;;5094191;28;20205;-50
2021/12/12 00:25:34;;;;;;;20.87;10.87;;;1.70;99.90;;;;;;5093837;28;20644;-47
2021/12/12 00:28:01;;;;;;;2.37;2.27;;;1.70;99.90;;;;;;5094285;28;20175;-47
2021/12/12 00:30:27;;;;;;;1.57;1.47;;;1.80;99.90;;;;;;5094125;28;20196;-50
2021/12/12 00:32:53;;;;;;;1.30;1.03;;;1.80;99.90;;;;;;5092486;28;20226;-49
2021/12/12 00:35:21;;;;;;;1.80;1.70;;;1.80;99.90;;;;;;5074143;28;20555;-50
2021/12/12 00:37:52;;;;;;;1.13;0.83;;;1.80;99.90;;;;;;5091967;28;20172;-54
2021/12/12 00:40:38;;;;;;;0.80;0.73;;;1.70;99.90;;;;;;5091835;28;20169;-54
2021/12/12 00:43:11;;;;;;;1.97;1.83;;;1.80;99.90;;;;;;5091945;28;20204;-48
2021/12/12 00:45:38;;;;;;;1.30;1.23;;;1.80;99.90;;;;;;5091904;28;20640;-52
2021/12/12 00:48:04;;;;;;;2.50;2.30;;;1.80;99.90;;;;;;5091785;28;20202;-53
2021/12/12 00:50:38;;;;;;;1.20;1.10;;;1.80;99.90;;;;;;5073784;28;20182;-51
2021/12/12 00:53:06;;;;;;;0.70;0.70;;;1.80;99.90;;;;;;5093529;28;20257;-48
2021/12/12 00:55:37;;;;;;;0.40;0.40;;;1.80;99.90;;;;;;5093925;28;20263;-48
2021/12/12 00:58:05;;;;;;;1.20;1.10;;;1.80;99.90;;;;;;5093698;28;20169;-48
2021/12/12 01:00:38;;;;;;;1.03;0.93;;;1.80;99.90;;;;;;5093535;28;20227;-48
2021/12/12 01:03:07;;;;;;;0.90;0.87;;;1.90;99.90;;;;;;5093220;28;20259;-50
2021/12/12 01:05:33;;;;;;;2.73;1.80;;;1.90;99.90;;;;;;5093423;28;20700;-47
2021/12/12 01:07:59;;;;;;;7.23;2.57;;;1.80;99.90;;;;;;5075194;28;20298;-49
2021/12/12 01:10:41;;;;;;;1.70;1.60;;;1.80;99.90;;;;;;5093281;28;20177;-48
2021/12/12 01:13:07;;;;;;;0.73;0.73;;;1.80;99.90;;;;;;5093043;28;20239;-59
2021/12/12 01:15:42;;;;;;;3.37;1.07;;;1.70;99.90;;;;;;5093627;28;20176;-49
2021/12/12 01:18:15;;;;;;;0.47;0.47;;;1.70;99.90;;;;;;5092885;28;20167;-48
2021/12/12 01:20:57;;;;;;;2.53;2.00;;;1.70;99.90;;;;;;5093450;28;20246;-48
2021/12/12 01:23:34;;;;;;;0.57;0.57;;;1.60;99.90;;;;;;5092866;28;20204;-48
2021/12/12 01:26:03;;;;;;;1.30;1.20;;;1.60;99.90;;;;;;5093332;28;20179;-52
2021/12/12 01:28:32;;;;;;;1.43;1.33;;;1.60;99.90;;;;;;5092804;28;20173;-48
2021/12/12 01:31:03;;;;;;;3.80;1.63;;;1.60;99.90;;;;;;5074783;28;20612;-50
2021/12/12 01:33:33;;;;;;;0.93;0.93;;;1.60;99.90;;;;;;5092928;28;20176;-50
2021/12/12 01:36:06;;;;;;;4.00;2.57;;;1.60;99.90;;;;;;5092497;28;20252;-48
2021/12/12 01:38:55;;;;;;;2.13;1.30;;;1.50;99.90;;;;;;5092533;28;20165;-54
2021/12/12 01:41:36;;;;;;;0.00;0.00;;;1.50;99.90;;;;;;5092755;28;20524;-53
2021/12/12 01:44:26;;;;;;;0.83;0.83;;;1.50;99.90;;;;;;5092879;28;20237;-49
2021/12/12 01:47:15;;;;;;;4.83;1.60;;;1.50;99.90;;;;;;5093065;28;20192;-48
2021/12/12 01:49:46;;;;;;;0.87;0.87;;;1.50;99.90;;;;;;5092839;28;20244;-49
2021/12/12 01:52:16;;;;;;;1.93;1.07;;;1.50;99.90;;;;;;5092736;28;20604;-52
2021/12/12 01:54:46;;;;;;;0.10;0.10;;;1.50;99.90;;;;;;5092682;28;20500;-50
2021/12/12 01:57:22;;;;;;;0.10;0.10;;;1.50;99.90;;;;;;5092414;28;20172;-50
2021/12/12 01:59:49;;;;;;;1.40;1.30;;;1.50;99.90;;;;;;5092549;28;20169;-51
2021/12/12 02:02:26;;;;;;;2.07;0.80;;;1.50;99.90;;;;;;5092414;28;20235;-48
2021/12/12 02:04:59;;;;;;;0.30;0.30;;;1.60;99.90;;;;;;5092503;28;20185;-55
2021/12/12 02:07:29;;;;;;;0.57;0.57;;;1.60;99.90;;;;;;5092469;28;20167;-51
2021/12/12 02:09:59;;;;;;;2.60;1.23;;;1.50;99.90;;;;;;5092275;28;20195;-47
2021/12/12 02:12:25;;;;;;;0.23;0.23;;;1.60;99.90;;;;;;5091853;28;20228;-49
2021/12/12 02:14:53;;;;;;;1.07;0.97;;;1.50;99.90;;;;;;5092091;28;20277;-48
2021/12/12 02:17:30;;;;;;;1.73;1.63;;;1.50;99.90;;;;;;5092404;28;20268;-51
2021/12/12 02:36:00;;;;;;;0.63;0.63;;;1.50;99.90;;;;;;5091644;28;20171;-53
2021/12/12 02:38:30;;;;;;;1.63;1.27;;;1.50;99.90;;;;;;5073754;28;20187;-52
2021/12/12 02:41:04;;;;;;;2.20;1.53;;;1.50;99.90;;;;;;5091999;28;20173;-51
2021/12/12 02:43:34;;;;;;;1.13;1.03;;;1.50;99.90;;;;;;5092032;28;20301;-52
2021/12/12 02:46:00;;;;;;;0.10;0.10;;;1.50;99.90;;;;;;5092221;28;20175;-52
2021/12/12 02:48:33;;;;;;;0.23;0.23;;;1.50;99.90;;;;;;5093919;28;20176;-53
2021/12/12 02:51:03;;;;;;;2.27;1.90;;;1.50;99.90;;;;;;5096241;28;20173;-54
2021/12/12 02:53:36;;;;;;;1.50;1.23;;;1.50;99.90;;;;;;5096125;28;20166;-53
2021/12/12 02:56:10;;;;;;;1.67;1.57;;;1.50;99.90;;;;;;5095960;28;20170;-55
2021/12/12 02:58:37;;;;;;;0.50;0.50;;;1.50;99.90;;;;;;5096000;28;20611;-52
2021/12/12 03:01:16;;;;;;;0.63;0.47;;;1.50;99.90;;;;;;5095775;28;20513;-51
2021/12/12 03:03:43;;;;;;;0.70;0.70;;;1.50;99.90;;;;;;5095931;28;20200;-53
2021/12/12 03:06:12;;;;;;;0.20;0.20;;;1.50;99.90;;;;;;5095623;28;20624;-55
2021/12/12 03:08:41;;;;;;;0.53;0.53;;;1.50;99.90;;;;;;5095994;28;20179;-51
2021/12/12 03:11:07;;;;;;;0.83;0.83;;;1.60;99.90;;;;;;5095723;28;20180;-52
2021/12/12 03:13:33;;;;;;;0.10;0.10;;;1.60;99.90;;;;;;5095429;28;20270;-52
2021/12/12 03:15:59;;;;;;;1.37;1.27;;;1.50;99.90;;;;;;5095774;28;20177;-56
2021/12/12 03:18:32;;;;;;;3.87;2.23;;;1.50;99.90;;;;;;5095624;28;20172;-53
2021/12/12 03:21:02;;;;;;;0.57;0.57;;;1.50;99.90;;;;;;5095812;28;20168;-49
2021/12/12 03:23:34;;;;;;;0.90;0.90;;;1.50;99.90;;;;;;5095432;28;20220;-53
2021/12/12 03:26:04;;;;;;;0.47;0.47;;;1.50;99.90;;;;;;5095536;28;20237;-50
2021/12/12 03:28:36;;;;;;;0.50;0.50;;;1.50;99.90;;;;;;5095567;28;20213;-52
2021/12/12 03:31:07;;;;;;;0.90;0.90;;;1.50;99.90;;;;;;5095580;28;20251;-51
2021/12/12 03:33:34;;;;;;;1.97;1.83;;;1.50;99.90;;;;;;5095369;28;20160;-51
2021/12/12 03:36:05;;;;;;;0.30;0.30;;;1.50;99.90;;;;;;5095123;28;20204;-55
2021/12/12 03:38:32;;;;;;;3.13;2.17;;;1.50;99.90;;;;;;5095111;28;20169;-55
2021/12/12 03:41:05;;;;;;;0.60;0.60;;;1.50;99.90;;;;;;5095131;28;20605;-52
2021/12/12 03:43:31;;;;;;;1.57;1.47;;;1.40;99.90;;;;;;5094737;28;20199;-55
2021/12/12 03:45:57;;;;;;;0.40;0.40;;;1.50;99.90;;;;;;5095305;28;20175;-52
2021/12/12 03:48:30;;;;;;;0.37;0.37;;;1.50;99.90;;;;;;5094671;28;20634;-51
2021/12/12 03:51:00;;;;;;;2.13;2.03;;;1.40;99.90;;;;;;5095099;28;20186;-55
2021/12/12 03:53:29;;;;;;;0.63;0.63;;;1.40;99.90;;;;;;5094754;28;20191;-53
2021/12/12 03:55:56;;;;;;;0.40;0.40;;;1.50;99.90;;;;;;5077145;28;20259;-52
2021/12/12 03:58:23;;;;;;;0.67;0.67;;;1.40;99.90;;;;;;5094906;28;20179;-52
2021/12/12 04:00:59;;;;;;;0.43;0.43;;;1.50;99.90;;;;;;5093870;28;20218;-50
2021/12/12 04:03:25;;;;;;;0.97;0.83;;;1.40;99.90;;;;;;5094627;28;20188;-53
2021/12/12 04:05:58;;;;;;;2.30;1.23;;;1.40;99.90;;;;;;5094737;28;20266;-53
2021/12/12 04:08:38;;;;;;;1.43;1.13;;;1.40;99.90;;;;;;5094514;28;20304;-50
2021/12/12 04:11:11;;;;;;;0.43;0.43;;;1.40;99.90;;;;;;5094662;28;20181;-51
2021/12/12 04:13:42;;;;;;;0.20;0.20;;;1.40;99.90;;;;;;5094431;28;20232;-52
2021/12/12 04:16:08;;;;;;;1.23;1.00;;;1.50;99.90;;;;;;5094625;28;20262;-50
2021/12/12 04:18:34;;;;;;;1.13;0.93;;;1.50;99.90;;;;;;5093966;28;20521;-49
2021/12/12 04:21:00;;;;;;;0.80;0.80;;;1.40;99.90;;;;;;5094461;28;20165;-48
2021/12/12 04:23:27;;;;;;;0.60;0.60;;;1.50;99.90;;;;;;5094305;28;20269;-51
2021/12/12 04:26:06;;;;;;;0.20;0.20;;;1.40;99.90;;;;;;5094334;28;20259;-50
2021/12/12 04:28:32;;;;;;;0.53;0.53;;;1.50;99.90;;;;;;5094490;28;20257;-53
2021/12/12 04:30:58;;;;;;;1.20;0.93;;;1.50;99.90;;;;;;5094296;28;20688;-48
2021/12/12 04:33:24;;;;;;;2.20;0.63;;;1.50;99.90;;;;;;5094025;28;20183;-48
2021/12/12 04:35:50;;;;;;;0.57;0.50;;;1.50;99.90;;;;;;5094237;28;20193;-50
2021/12/12 04:38:16;;;;;;;0.50;0.50;;;1.50;99.90;;;;;;5094014;28;20601;-52
2021/12/12 04:40:42;;;;;;;1.00;0.90;;;1.50;99.90;;;;;;5093885;28;20177;-54
2021/12/12 04:43:07;;;;;;;2.20;1.03;;;1.50;99.90;;;;;;5075696;28;20307;-52
2021/12/12 04:46:06;;;;;;;0.70;0.70;;;1.40;99.90;;;;;;5093757;28;20258;-51
2021/12/12 04:51:40;;;;;;;0.30;0.30;;;1.40;99.90;;;;;;5093433;28;20165;-50
2021/12/12 04:54:24;;;;;;;0.20;0.20;;;1.40;99.90;;;;;;5094189;28;20161;-50
2021/12/12 04:57:03;;;;;;;1.07;1.07;;;1.40;99.90;;;;;;5093741;28;20245;-47
2021/12/12 04:59:49;;;;;;;2.63;1.13;;;1.40;99.90;;;;;;5075109;28;20187;-50
2021/12/12 05:02:27;;;;;;;0.30;0.30;;;1.40;99.90;;;;;;5093367;28;20186;-49
2021/12/12 05:04:59;;;;;;;0.53;0.53;;;1.40;99.90;;;;;;5093266;28;20586;-55
2021/12/12 05:07:33;;;;;;;0.97;0.93;;;1.40;99.90;;;;;;5093473;28;20173;-52
2021/12/12 05:10:05;;;;;;;1.30;0.80;;;1.40;99.90;;;;;;5093634;28;20207;-50
2021/12/12 05:12:47;;;;;;;0.53;0.53;;;1.40;99.90;;;;;;5093525;28;20547;-52
2021/12/12 05:15:55;;;;;;;1.20;1.10;;;1.40;99.90;;;;;;5093512;28;20627;-67
2021/12/12 05:18:32;;;;;;;0.10;0.10;;;1.50;99.90;;;;;;5071017;28;20191;-51
2021/12/12 05:21:08;;;;;;;0.47;0.47;;;1.50;99.90;;;;;;5093305;28;20153;-50
2021/12/12 05:23:37;;;;;;;1.27;0.97;;;1.50;99.90;;;;;;5093059;28;20528;-52
2021/12/12 05:26:20;;;;;;;0.33;0.33;;;1.50;99.90;;;;;;5093001;28;20224;-51
2021/12/12 05:28:50;;;;;;;1.30;1.20;;;1.50;99.90;;;;;;5093100;28;20167;-50
2021/12/12 05:31:18;;;;;;;0.03;0.03;;;1.50;99.90;;;;;;5092510;28;20179;-51
2021/12/12 05:33:48;;;;;;;0.30;0.30;;;1.50;99.90;;;;;;5093094;28;20176;-52
2021/12/12 05:36:15;;;;;;;0.50;0.50;;;1.50;99.90;;;;;;5092804;28;20187;-60
2021/12/12 05:38:41;;;;;;;0.63;0.63;;;1.50;99.90;;;;;;5093147;28;20209;-52
2021/12/12 05:41:08;;;;;;;0.53;0.53;;;1.50;99.90;;;;;;5092045;28;20524;-50
2021/12/12 05:43:34;;;;;;;0.73;0.73;;;1.50;99.90;;;;;;5092233;28;20201;-52
2021/12/12 05:46:01;;;;;;;0.93;0.77;;;1.40;99.90;;;;;;5092160;28;20637;-51
2021/12/12 05:48:29;;;;;;;0.93;0.93;;;1.40;99.90;;;;;;5092181;28;20188;-50
2021/12/12 05:50:54;;;;;;;0.23;0.23;;;1.40;99.90;;;;;;5092324;28;20594;-48
2021/12/12 05:53:20;;;;;;;0.77;0.77;;;1.40;99.90;;;;;;5092095;28;20202;-50
2021/12/12 05:55:47;;;;;;;0.20;0.20;;;1.40;99.90;;;;;;5092130;28;20520;-52
2021/12/12 05:58:18;;;;;;;3.53;2.23;;;1.40;99.90;;;;;;5091997;28;20172;-71
2021/12/12 06:01:15;;;;;;;0.37;0.37;;;1.40;99.90;;;;;;5091950;28;20551;-52
2021/12/12 06:03:42;;;;;;;0.60;0.60;;;1.40;99.90;;;;;;5069786;28;20246;-54
2021/12/12 06:06:15;;;;;;;2.23;0.93;;;1.40;99.90;;;;;;5091916;28;20188;-48
2021/12/12 06:08:43;;;;;;;0.47;0.47;;;1.40;99.90;;;;;;5092568;28;20305;-51
2021/12/12 06:11:11;;;;;;;0.00;0.00;;;1.40;99.90;;;;;;5092303;28;20186;-51
2021/12/12 06:13:38;;;;;;;0.10;0.10;;;1.40;99.90;;;;;;5091369;28;20231;-53
2021/12/12 06:16:06;;;;;;;0.77;0.77;;;1.40;99.90;;;;;;5091968;28;20169;-54
2021/12/12 06:18:33;;;;;;;0.10;0.10;;;1.30;99.90;;;;;;5091943;28;20242;-52
2021/12/12 06:21:00;;;;;;;0.97;0.90;;;1.30;99.90;;;;;;5091591;28;20250;-54
2021/12/12 06:23:27;;;;;;;0.53;0.53;;;1.40;99.90;;;;;;5091330;28;20294;-53
2021/12/12 06:25:53;;;;;;;0.67;0.67;;;1.40;99.90;;;;;;5091982;28;20182;-52
2021/12/12 06:28:33;;;;;;;0.60;0.60;;;1.40;99.90;;;;;;5090982;28;20650;-53
2021/12/12 06:31:00;;;;;;;1.93;0.80;;;1.40;99.90;;;;;;5091690;28;20213;-53
2021/12/12 06:33:28;;;;;;;0.70;0.70;;;1.40;99.90;;;;;;5092198;28;20263;-52
2021/12/12 06:35:54;;;;;;;0.80;0.80;;;1.40;99.90;;;;;;5092711;28;20229;-49
2021/12/12 06:38:22;;;;;;;0.07;0.07;;;1.40;99.90;;;;;;5091436;28;20187;-52
2021/12/12 06:40:49;;;;;;;0.37;0.37;;;1.30;99.90;;;;;;5091919;28;20176;-52
2021/12/12 06:43:18;;;;;;;0.17;0.17;;;1.40;99.90;;;;;;5091400;28;20555;-52
2021/12/12 06:45:44;;;;;;;0.67;0.67;;;1.40;99.90;;;;;;5091263;28;20275;-54
2021/12/12 06:48:11;;;;;;;0.10;0.10;;;1.40;99.90;;;;;;5090666;28;20203;-53
2021/12/12 06:50:40;;;;;;;0.10;0.10;;;1.40;99.90;;;;;;5090649;28;20222;-51
2021/12/12 06:53:06;;;;;;;7.10;0.80;;;1.40;99.90;;;;;;5090192;28;20620;-53
2021/12/12 06:55:34;;;;;;;29.33;1.00;;;1.40;99.90;;;;;;5090756;28;20693;-52
2021/12/12 06:58:03;;;;;;;0.27;0.27;;;1.40;99.90;;;;;;5073853;28;20196;-50
2021/12/12 07:00:29;;;;;;;1.00;1.00;;;1.40;99.90;;;;;;5073653;28;20177;-50
2021/12/12 07:02:55;;;;;;;0.10;0.10;;;1.40;99.90;;;;;;5091892;28;20169;-52
2021/12/12 07:05:26;;;;;;;0.47;0.27;;;1.40;99.90;;;;;;5090975;28;20858;-52
2021/12/12 07:07:53;;;;;;;0.40;0.40;;;1.50;99.90;;;;;;5091093;28;20165;-59
2021/12/12 07:10:21;;;;;;;0.40;0.20;;;1.40;99.90;;;;;;5090952;28;20324;-53
2021/12/12 07:12:54;;;;;;;0.47;0.47;;;1.40;99.90;;;;;;5091221;28;20175;-49
2021/12/12 07:15:21;;;;;;;0.77;0.33;;;1.40;99.90;;;;;;5072806;28;20520;-53
2021/12/12 07:17:47;;;;;;;0.27;0.13;;;1.40;99.90;;;;;;5091523;28;20165;-52
2021/12/12 07:20:13;;;;;;;1.70;0.93;;;1.40;99.90;;;;;;5091548;28;20249;-52
2021/12/12 07:22:40;;;;;;;1.90;1.03;;;1.40;99.90;;;;;;5090867;28;20181;-49
2021/12/12 07:25:08;;;;;;;0.10;0.10;;;1.40;99.90;;;;;;5073302;28;20207;-54
2021/12/12 07:27:34;;;;;;;0.10;0.10;;;1.40;99.90;;;;;;5091221;28;20171;-53
2021/12/12 07:30:01;;;;;;;0.40;0.40;;;1.40;99.90;;;;;;5073205;28;20234;-54
2021/12/12 07:32:27;;;;;;;0.30;0.30;;;1.40;99.90;;;;;;5091023;28;20188;-52
2021/12/12 07:34:54;;;;;;;0.10;0.10;;;1.40;99.90;;;;;;5092774;28;20279;-51
2021/12/12 07:37:20;;;;;;;0.40;0.40;;;1.40;99.90;;;;;;5094640;28;20204;-50
2021/12/12 07:39:48;;;;;;;4.03;1.50;;;1.40;99.90;;;;;;5095142;28;20173;-50
2021/12/12 07:42:16;;;;;;;2.17;1.17;;;1.40;99.90;;;;;;5094565;28;20594;-54
2021/12/12 07:44:44;;;;;;;0.13;0.13;;;1.40;99.90;;;;;;5094875;28;20222;-53
2021/12/12 07:47:11;;;;;;;0.57;0.57;;;1.40;99.90;;;;;;5094596;28;20187;-51
2021/12/12 07:49:41;;;;;;;0.53;0.53;;;1.40;99.90;;;;;;5094416;28;20646;-51
2021/12/12 07:52:11;;;;;;;0.60;0.60;;;1.40;99.90;;;;;;5094483;28;20619;-50
2021/12/12 07:54:37;;;;;;;3.60;1.17;;;1.40;99.90;;;;;;5093966;28;20200;-53
2021/12/12 07:57:04;;;;;;;0.23;0.23;;;1.40;99.90;;;;;;5094096;28;20212;-56
2021/12/12 07:59:32;;;;;;;2.30;1.23;;;1.40;99.90;;;;;;5093991;28;20283;-56
2021/12/12 08:01:58;;;;;;;0.30;0.30;;;1.40;99.90;;;;;;5093909;28;20199;-51
2021/12/12 08:04:27;;;;;;;0.10;0.10;;;1.40;99.90;;;;;;5093290;28;20207;-50
2021/12/12 08:06:55;;;;;;;0.53;0.53;;;1.40;99.90;;;;;;5094073;28;20177;-53
2021/12/12 08:09:22;;;;;;;0.40;0.40;;;1.40;99.90;;;;;;5093671;28;20307;-51
2021/12/12 08:11:48;;;;;;;0.83;0.83;;;1.40;99.90;;;;;;5093633;28;20177;-48
2021/12/12 08:14:20;;;;;;;0.10;0.10;;;1.40;99.90;;;;;;5093820;28;20623;-49
2021/12/12 08:16:48;;;;;;;0.00;0.00;;;1.40;99.90;;;;;;5091128;28;20157;-56
2021/12/12 08:19:15;;;;;;;0.10;0.10;;;1.50;99.90;;;;;;5093659;28;20176;-50
2021/12/12 08:21:41;;;;;;;0.10;0.10;;;1.50;99.90;;;;;;5058891;28;20230;-53
2021/12/12 08:24:10;;;;;;;1.07;0.67;;;1.50;99.90;;;;;;5072299;28;20196;-55
2021/12/12 08:26:38;;;;;;;0.77;0.40;;;1.50;99.90;;;;;;5093953;28;20180;-54
2021/12/12 08:29:09;;;;;;;0.20;0.20;;;1.60;99.90;;;;;;5093720;28;20169;-51
2021/12/12 08:31:35;;;;;;;0.93;0.93;;;1.60;99.90;;;;;;5093250;28;20504;-53
2021/12/12 08:34:04;;;;;;;0.13;0.13;;;1.60;99.90;;;;;;5093789;28;20196;-52
2021/12/12 08:36:32;;;;;;;1.67;0.47;;;1.60;99.90;;;;;;5093832;28;20486;-53
2021/12/12 08:38:57;;;;;;;0.10;0.10;;;1.60;99.90;;;;;;5093614;28;20172;-52
2021/12/12 08:41:23;;;;;;;0.67;0.67;;;1.60;99.90;;;;;;5093239;28;20517;-54
2021/12/12 08:43:50;;;;;;;1.07;0.73;;;1.60;99.90;;;;;;5093482;28;20203;-54
2021/12/12 08:46:16;;;;;;;0.10;0.10;;;1.60;99.90;;;;;;5092843;28;20562;-54
2021/12/12 08:48:47;;;;;;;0.23;0.23;;;1.60;99.90;;;;;;5092463;28;20185;-53
2021/12/12 08:51:22;;;;;;;0.20;0.20;;;1.60;99.90;;;;;;5092029;28;20167;-51
2021/12/12 08:53:50;;;;;;;4.90;0.50;;;1.50;99.90;;;;;;5074352;28;20587;-53
2021/12/12 08:56:30;;;;;;;0.10;0.10;;;1.50;99.90;;;;;;5092466;28;20828;-55
2021/12/12 08:58:58;;;;;;;0.33;0.33;;;1.60;99.90;;;;;;5092241;28;20180;-52
2021/12/12 09:01:25;;;;;;;0.10;0.10;;;1.60;99.90;;;;;;5091889;28;20262;-51
2021/12/12 09:03:58;;;;;;;0.40;0.40;;;1.70;99.90;;;;;;5074645;28;20204;-55
2021/12/12 09:06:32;;;;;;;0.33;0.23;;;1.70;99.90;;;;;;5074251;28;20648;-50
2021/12/12 09:09:03;;;;;;;1.90;1.70;;;1.80;99.90;;;;;;5092415;28;20204;-52
2021/12/12 09:11:44;;;;;;;0.20;0.20;;;1.70;99.90;;;;;;5092879;28;20267;-51
2021/12/12 09:14:32;;;;;;;0.10;0.10;;;1.70;99.90;;;;;;5092007;28;20679;-55
2021/12/12 09:17:09;;;;;;;0.10;0.10;;;1.70;99.90;;;;;;5092007;28;20176;-53
2021/12/12 09:20:04;;;;;;;0.10;0.10;;;1.60;99.90;;;;;;5092206;28;20161;-52
2021/12/12 09:22:37;;;;;;;0.30;0.30;;;1.60;99.90;;;;;;5074500;28;20195;-48
2021/12/12 09:25:31;;;;;;;0.10;0.10;;;1.60;99.90;;;;;;5090219;28;20327;-53
2021/12/12 09:28:17;;;;;;;0.10;0.10;;;1.60;99.90;;;;;;5092733;28;20175;-50
2021/12/12 09:30:43;;;;;;;0.20;0.20;;;1.60;99.90;;;;;;5092100;28;20177;-51
2021/12/12 09:33:20;;;;;;;0.40;0.40;;;1.60;99.90;;;;;;5092115;28;20226;-51
2021/12/12 09:35:57;;;;;;;0.10;0.10;;;1.60;99.90;;;;;;5091779;28;20179;-49
2021/12/12 09:38:36;;;;;;;0.17;0.17;;;1.50;99.90;;;;;;5086567;28;20182;-56
2021/12/12 09:41:17;;;;;;;0.73;0.73;;;1.50;99.90;;;;;;5092478;28;20191;-54
2021/12/12 09:44:08;;;;;;;0.67;0.67;;;1.50;99.90;;;;;;5091435;28;20197;-53
2021/12/12 09:47:00;;;;;;;0.30;0.30;;;1.50;99.90;;;;;;5091975;28;20180;-51
2021/12/12 09:52:57;;;;;;;0.00;0.00;;;1.50;99.90;;;;;;5091583;28;20322;-55
2021/12/12 09:55:36;;;;;;;0.20;0.20;;;1.50;99.90;;;;;;5052254;28;20663;-54
2021/12/12 09:58:14;;;;;;;0.83;0.67;;;1.60;99.90;;;;;;5091358;28;20601;-54
2021/12/12 10:00:58;;;;;;;0.10;0.10;;;1.60;99.90;;;;;;5073173;28;20624;-52
2021/12/12 10:03:33;;;;;;;0.30;0.30;;;1.60;99.90;;;;;;5088207;28;20587;-54
2021/12/12 10:06:04;;;;;;;0.70;0.70;;;1.60;99.90;;;;;;5090007;28;20175;-54
2021/12/12 10:08:52;;;;;;;0.50;0.50;;;1.60;99.90;;;;;;5089278;28;20180;-55
2021/12/12 10:11:29;;;;;;;0.73;0.73;;;1.60;99.90;;;;;;5089484;28;20533;-55
2021/12/12 10:14:05;;;;;;;0.30;0.30;;;1.60;99.90;;;;;;5089867;28;20222;-59
2021/12/12 10:16:37;;;;;;;0.77;0.77;;;1.50;99.90;;;;;;5069887;28;20615;-54
2021/12/12 10:19:08;;;;;;;0.37;0.37;;;1.50;99.90;;;;;;5089070;28;20238;-52
2021/12/12 10:21:51;;;;;;;2.57;0.73;;;1.50;99.90;;;;;;5089369;28;20205;-53
2021/12/12 10:24:23;;;;;;;0.27;0.27;;;1.50;99.90;;;;;;5087945;28;20201;-49
2021/12/12 10:27:14;;;;;;;2.80;1.40;;;1.50;99.90;;;;;;5089723;28;20184;-52
2021/12/12 10:30:08;;;;;;;0.17;0.17;;;1.40;99.90;;;;;;5087508;28;20218;-57
2021/12/12 10:32:44;;;;;;;0.37;0.37;;;1.50;99.90;;;;;;5089101;28;20176;-52
2021/12/12 10:35:16;;;;;;;0.60;0.60;;;1.50;99.90;;;;;;5086521;28;20604;-52
2021/12/12 10:38:07;;;;;;;1.87;0.37;;;1.50;99.90;;;;;;5088154;28;20183;-54
2021/12/12 10:40:45;;;;;;;0.67;0.67;;;1.50;99.90;;;;;;5086927;28;20271;-51
2021/12/12 10:43:13;;;;;;;0.00;0.00;;;1.50;99.90;;;;;;5088577;28;20211;-56
2021/12/12 10:45:56;;;;;;;0.20;0.20;;;1.50;99.90;;;;;;5089154;28;20185;-57
2021/12/12 10:48:30;;;;;;;0.30;0.30;;;1.50;99.90;;;;;;5072566;28;20291;-52
2021/12/12 10:51:00;;;;;;;1.13;0.57;;;1.50;99.90;;;;;;5089463;28;20167;-55
2021/12/12 10:53:35;;;;;;;0.30;0.30;;;1.60;99.90;;;;;;5088038;28;20324;-56
2021/12/12 10:56:25;;;;;;;0.00;0.00;;;1.60;99.90;;;;;;5087762;28;20178;-58
2021/12/12 10:58:55;;;;;;;0.10;0.10;;;1.60;99.90;;;;;;5089020;28;20176;-58
2021/12/12 11:01:33;;;;;;;0.20;0.20;;;1.60;99.90;;;;;;5069177;28;20245;-61
2021/12/12 11:04:30;;;;;;;0.33;0.33;;;1.60;99.90;;;;;;5088324;28;20193;-57
2021/12/12 11:07:36;;;;;;;0.20;0.20;;;1.50;99.90;;;;;;5088645;28;20913;-59
2021/12/12 11:10:07;;;;;;;0.00;0.00;;;1.50;99.90;;;;;;5054191;28;20414;-57
2021/12/12 11:12:49;;;;;;;0.10;0.10;;;1.50;99.90;;;;;;5071705;28;20284;-52
2021/12/12 11:15:30;;;;;;;0.27;0.27;;;1.50;99.90;;;;;;5075122;28;20195;-57
2021/12/12 11:18:16;;;;;;;0.30;0.30;;;1.50;99.90;;;;;;5093550;28;20180;-59
2021/12/12 11:20:48;;;;;;;0.20;0.20;;;1.50;99.90;;;;;;5092653;28;20456;-56
2021/12/12 11:23:27;;;;;;;0.20;0.20;;;1.50;99.90;;;;;;5092675;28;20291;-52
2021/12/12 11:26:00;;;;;;;0.27;0.27;;;1.50;99.90;;;;;;5093010;28;20408;-50
2021/12/12 11:28:29;;;;;;;0.63;0.60;;;1.50;99.90;;;;;;5093109;28;20184;-64
2021/12/12 11:31:11;;;;;;;0.13;0.13;;;1.50;99.90;;;;;;5092819;28;20522;-59
2021/12/12 11:33:38;;;;;;;0.10;0.10;;;1.50;99.90;;;;;;5092038;28;20508;-53
2021/12/12 11:36:08;;;;;;;0.10;0.10;;;1.50;99.90;;;;;;5074792;28;20218;-55
2021/12/12 11:38:43;;;;;;;0.00;0.00;;;1.60;99.90;;;;;;5092411;28;20172;-57
2021/12/12 11:41:17;;;;;;;0.77;0.73;;;1.60;99.90;;;;;;5092806;28;20195;-54
2021/12/12 11:44:02;;;;;;;1.10;1.03;;;1.60;99.90;;;;;;5092513;28;20622;-57
2021/12/12 11:46:52;;;;;;;0.20;0.20;;;1.60;99.90;;;;;;5092022;28;20167;-59
2021/12/12 11:49:31;;;;;;;0.40;0.40;;;1.50;99.90;;;;;;5092611;28;20179;-56
2021/12/12 11:52:08;;;;;;;0.27;0.27;;;1.50;99.90;;;;;;5092322;28;20175;-51
2021/12/12 11:54:54;;;;;;;0.40;0.40;;;1.50;99.90;;;;;;5091654;28;20709;-54
2021/12/12 11:57:26;;;;;;;0.13;0.13;;;1.60;99.90;;;;;;5092032;28;20200;-51
2021/12/12 12:00:06;;;;;;;0.40;0.40;;;1.60;99.90;;;;;;5091792;28;20188;-53
2021/12/12 12:03:00;;;;;;;2.73;0.63;;;1.60;99.90;;;;;;5090759;28;20200;-62
2021/12/12 12:05:51;;;;;;;0.10;0.10;;;1.60;99.90;;;;;;5090641;28;20255;-59
2021/12/12 12:08:35;;;;;;;0.60;0.60;;;1.60;99.90;;;;;;5092885;28;20185;-58
2021/12/12 12:11:32;;;;;;;2.93;0.93;;;1.60;99.90;;;;;;5093802;28;20192;-56
2021/12/12 12:14:22;;;;;;;0.10;0.10;;;1.60;99.90;;;;;;5055227;28;20331;-53
2021/12/12 12:16:57;;;;;;;1.60;1.17;;;1.60;99.90;;;;;;5073792;28;20212;-50
2021/12/12 12:19:44;;;;;;;0.07;0.07;;;1.60;99.90;;;;;;5073467;28;20157;-56
2021/12/12 12:22:34;;;;;;;0.00;0.00;;;1.60;99.90;;;;;;5072149;28;20238;-66
2021/12/12 12:28:27;;;;;;;0.37;0.20;;;1.60;99.90;;;;;;5078086;28;20205;-50
2021/12/12 12:31:21;;;;;;;0.30;0.30;;;1.50;99.90;;;;;;5075380;28;20171;-49
2021/12/12 12:34:11;;;;;;;0.87;0.87;;;1.50;99.90;;;;;;5093801;28;20166;-50
2021/12/12 12:37:14;;;;;;;0.57;0.57;;;1.50;99.90;;;;;;5092351;28;20207;-53
2021/12/12 12:40:17;;;;;;;0.10;0.10;;;1.50;99.90;;;;;;5090655;28;20187;-54
2021/12/12 12:43:21;;;;;;;0.50;0.50;;;1.50;99.90;;;;;;5090862;28;20187;-52
2021/12/12 12:46:08;;;;;;;0.20;0.20;;;1.50;99.90;;;;;;5093024;28;20203;-53
2021/12/12 12:49:11;;;;;;;0.20;0.20;;;1.50;99.90;;;;;;5092821;28;20228;-54
2021/12/12 12:52:15;;;;;;;0.10;0.10;;;1.50;99.90;;;;;;5092729;28;20640;-52
2021/12/12 12:54:59;;;;;;;0.53;0.53;;;1.50;99.90;;;;;;5092893;28;20188;-55
2021/12/12 12:57:31;;;;;;;0.10;0.10;;;1.50;99.90;;;;;;5092710;28;20651;-58
2021/12/12 13:00:11;;;;;;;0.10;0.10;;;1.50;99.90;;;;;;5074808;28;20279;-53
2021/12/12 13:03:04;;;;;;;0.13;0.13;;;1.50;99.90;;;;;;5074472;28;20273;-50
2021/12/12 13:06:00;;;;;;;0.57;0.57;;;1.50;99.90;;;;;;5074749;28;20259;-55
2021/12/12 13:08:51;;;;;;;1.90;1.07;;;1.50;99.90;;;;;;5092440;28;20528;-52
2021/12/12 13:11:27;;;;;;;0.20;0.20;;;1.50;99.90;;;;;;5093422;28;20185;-52
2021/12/12 13:13:57;;;;;;;0.00;0.00;;;1.50;99.90;;;;;;5092743;28;20322;-54
2021/12/12 13:16:42;;;;;;;0.50;0.50;;;1.50;99.90;;;;;;5074744;28;20274;-51
2021/12/12 13:19:37;;;;;;;0.20;0.20;;;1.50;99.90;;;;;;5092997;28;20196;-50
2021/12/12 13:22:15;;;;;;;0.00;0.00;;;1.50;99.90;;;;;;5092988;28;20236;-55
2021/12/12 13:24:57;;;;;;;0.33;0.33;;;1.40;99.90;;;;;;5092055;28;20226;-52
2021/12/12 13:28:09;;;;;;;0.40;0.40;;;1.40;99.90;;;;;;5092838;28;20185;-53
2021/12/12 13:30:43;;;;;;;0.57;0.57;;;1.40;99.90;;;;;;5044404;28;20282;-55
2021/12/12 13:33:18;;;;;;;0.20;0.20;;;1.40;99.90;;;;;;5090705;28;20169;-58
2021/12/12 13:36:05;;;;;;;0.30;0.30;;;1.40;99.90;;;;;;5090736;28;20175;-54
2021/12/12 13:38:51;;;;;;;0.10;0.10;;;1.40;99.90;;;;;;5090546;28;20169;-56
2021/12/12 13:41:25;;;;;;;1.07;0.80;;;1.40;99.90;;;;;;5091015;28;20259;-53
2021/12/12 13:44:22;;;;;;;0.10;0.10;;;1.50;99.90;;;;;;5090737;28;20198;-50
2021/12/12 13:46:57;;;;;;;0.67;0.67;;;1.40;99.90;;;;;;5090335;28;20179;-52
2021/12/12 13:49:29;;;;;;;0.00;0.00;;;1.40;99.90;;;;;;5092056;28;20179;-57
2021/12/12 13:52:28;;;;;;;;;;;;;;;;;;;;;
2021/12/12 13:55:01;;;;;;;0.07;0.07;;;1.40;99.90;;;;;;5091162;28;20207;-49
2021/12/12 13:57:46;;;;;;;2.03;0.60;;;1.40;99.90;;;;;;5073063;28;20267;-54
2021/12/12 14:00:19;;;;;;;2.20;0.83;;;1.40;99.90;;;;;;5074032;28;20183;-51